sensor_id;sensor_type;location;lat;lon;timestamp;pressure;altitude;pressure_sealevel;temperature;humidity
42945;BME280;28584;42.636;23.294;2023-02-28T00:00:39;125403.09;;;5.24;100.00
42945;BME280;28584;42.636;23.294;2023-02-28T00:03:05;125289.22;;;5.31;100.00
42945;BME280;28584;42.636;23.294;2023-02-28T00:05:30;125133.66;;;5.21;100.00
42945;BME280;28584;42.636;23.294;2023-02-28T00:07:56;124945.72;;;5.30;100.00
42945;BME280;28584;42.636;23.294;2023-02-28T00:10:31;124812.16;;;5.46;100.00
42945;BME280;28584;42.636;23.294;2023-02-28T00:13:05;124558.09;;;5.46;100.00
42945;BME280;28584;42.636;23.294;2023-02-28T00:15:31;124378.09;;;5.44;100.00
42945;BME280;28584;42.636;23.294;2023-02-28T00:17:57;124159.91;;;5.41;100.00
42945;BME280;28584;42.636;23.294;2023-02-28T00:20:23;123830.13;;;5.24;100.00
42945;BME280;28584;42.636;23.294;2023-02-28T00:22:52;123689.50;;;5.38;100.00
42945;BME280;28584;42.636;23.294;2023-02-28T00:25:21;123392.28;;;5.32;100.00
42945;BME280;28584;42.636;23.294;2023-02-28T00:27:47;123310.00;;;5.34;100.00
42945;BME280;28584;42.636;23.294;2023-02-28T00:30:15;123114.66;;;5.44;100.00
42945;BME280;28584;42.636;23.294;2023-02-28T00:32:41;123082.50;;;5.51;100.00
42945;BME280;28584;42.636;23.294;2023-02-28T00:35:08;122941.06;;;5.58;100.00
42945;BME280;28584;42.636;23.294;2023-02-28T00:37:34;122671.41;;;5.57;100.00
42945;BME280;28584;42.636;23.294;2023-02-28T00:39:59;122532.66;;;5.64;100.00
42945;BME280;28584;42.636;23.294;2023-02-28T00:42:25;122209.72;;;5.65;100.00
42945;BME280;28584;42.636;23.294;2023-02-28T00:44:50;121714.03;;;5.48;100.00
42945;BME280;28584;42.636;23.294;2023-02-28T00:47:16;121342.25;;;5.45;100.00
42945;BME280;28584;42.636;23.294;2023-02-28T00:49:41;120810.09;;;5.45;100.00
42945;BME280;28584;42.636;23.294;2023-02-28T00:52:07;120357.16;;;5.45;100.00
42945;BME280;28584;42.636;23.294;2023-02-28T00:54:33;119903.09;;;5.32;100.00
42945;BME280;28584;42.636;23.294;2023-02-28T00:56:58;119519.34;;;5.20;100.00
42945;BME280;28584;42.636;23.294;2023-02-28T00:59:24;119301.41;;;5.27;100.00
42945;BME280;28584;42.636;23.294;2023-02-28T01:01:49;119100.22;;;4.83;100.00
42945;BME280;28584;42.636;23.294;2023-02-28T01:04:14;120319.84;;;4.76;100.00
42945;BME280;28584;42.636;23.294;2023-02-28T01:06:40;121312.69;;;4.84;100.00
42945;BME280;28584;42.636;23.294;2023-02-28T01:09:07;121804.91;;;4.82;100.00
42945;BME280;28584;42.636;23.294;2023-02-28T01:11:33;121980.44;;;4.83;100.00
42945;BME280;28584;42.636;23.294;2023-02-28T01:13:59;122114.66;;;4.72;100.00
42945;BME280;28584;42.636;23.294;2023-02-28T01:16:25;122151.53;;;4.70;100.00
42945;BME280;28584;42.636;23.294;2023-02-28T01:18:50;122030.84;;;4.71;100.00
42945;BME280;28584;42.636;23.294;2023-02-28T01:21:17;122005.47;;;4.76;100.00
42945;BME280;28584;42.636;23.294;2023-02-28T01:23:43;122011.66;;;4.75;100.00
42945;BME280;28584;42.636;23.294;2023-02-28T01:26:14;122069.31;;;4.73;100.00
42945;BME280;28584;42.636;23.294;2023-02-28T01:28:40;122354.22;;;4.75;100.00
42945;BME280;28584;42.636;23.294;2023-02-28T01:31:06;122640.25;;;4.73;100.00
42945;BME280;28584;42.636;23.294;2023-02-28T01:33:33;122880.81;;;4.80;100.00
42945;BME280;28584;42.636;23.294;2023-02-28T01:36:04;123120.50;;;4.79;100.00
42945;BME280;28584;42.636;23.294;2023-02-28T01:38:29;123393.69;;;4.60;100.00
42945;BME280;28584;42.636;23.294;2023-02-28T01:40:55;124239.78;;;4.55;100.00
42945;BME280;28584;42.636;23.294;2023-02-28T01:43:27;125300.69;;;4.72;100.00
42945;BME280;28584;42.636;23.294;2023-02-28T01:45:54;125919.97;;;4.64;100.00
42945;BME280;28584;42.636;23.294;2023-02-28T01:48:27;126523.91;;;4.80;100.00
42945;BME280;28584;42.636;23.294;2023-02-28T01:50:57;126943.97;;;4.79;100.00
42945;BME280;28584;42.636;23.294;2023-02-28T01:53:31;127309.69;;;4.81;100.00
42945;BME280;28584;42.636;23.294;2023-02-28T01:55:57;127574.47;;;4.90;100.00
42945;BME280;28584;42.636;23.294;2023-02-28T01:58:23;127664.19;;;5.04;100.00
42945;BME280;28584;42.636;23.294;2023-02-28T02:00:49;127669.91;;;5.08;100.00
42945;BME280;28584;42.636;23.294;2023-02-28T02:03:16;127783.41;;;5.10;100.00
42945;BME280;28584;42.636;23.294;2023-02-28T02:05:46;127609.59;;;5.11;100.00
42945;BME280;28584;42.636;23.294;2023-02-28T02:08:23;127634.47;;;5.21;100.00
42945;BME280;28584;42.636;23.294;2023-02-28T02:10:52;127492.78;;;5.23;100.00
42945;BME280;28584;42.636;23.294;2023-02-28T02:35:10;126851.69;;;5.10;100.00
42945;BME280;28584;42.636;23.294;2023-02-28T02:37:51;126490.75;;;5.02;100.00
42945;BME280;28584;42.636;23.294;2023-02-28T02:45:23;126269.19;;;4.77;100.00
42945;BME280;28584;42.636;23.294;2023-02-28T02:47:51;126140.78;;;4.67;100.00
42945;BME280;28584;42.636;23.294;2023-02-28T02:50:24;125792.34;;;4.63;100.00
42945;BME280;28584;42.636;23.294;2023-02-28T02:52:56;125462.81;;;4.52;100.00
42945;BME280;28584;42.636;23.294;2023-02-28T02:55:23;125328.97;;;4.23;100.00
42945;BME280;28584;42.636;23.294;2023-02-28T02:57:54;125429.50;;;4.11;100.00
42945;BME280;28584;42.636;23.294;2023-02-28T03:00:26;125600.84;;;3.99;100.00
42945;BME280;28584;42.636;23.294;2023-02-28T03:02:55;125754.47;;;4.06;100.00
42945;BME280;28584;42.636;23.294;2023-02-28T03:05:27;125661.19;;;4.00;100.00
42945;BME280;28584;42.636;23.294;2023-02-28T03:07:55;125360.81;;;3.95;100.00
42945;BME280;28584;42.636;23.294;2023-02-28T03:13:22;124758.41;;;4.05;100.00
42945;BME280;28584;42.636;23.294;2023-02-28T03:18:47;124973.00;;;4.17;100.00
42945;BME280;28584;42.636;23.294;2023-02-28T03:21:23;125322.03;;;4.42;100.00
42945;BME280;28584;42.636;23.294;2023-02-28T03:26:52;126171.59;;;4.53;100.00
42945;BME280;28584;42.636;23.294;2023-02-28T03:29:22;126523.38;;;4.55;100.00
42945;BME280;28584;42.636;23.294;2023-02-28T03:32:26;126930.50;;;4.50;100.00
42945;BME280;28584;42.636;23.294;2023-02-28T03:35:02;127179.63;;;4.40;100.00
42945;BME280;28584;42.636;23.294;2023-02-28T03:37:34;127439.69;;;4.52;100.00
42945;BME280;28584;42.636;23.294;2023-02-28T03:40:06;127535.38;;;4.50;100.00
42945;BME280;28584;42.636;23.294;2023-02-28T03:42:39;127640.00;;;4.53;100.00
42945;BME280;28584;42.636;23.294;2023-02-28T03:48:25;127905.44;;;4.52;100.00
42945;BME280;28584;42.636;23.294;2023-02-28T03:50:54;127954.41;;;4.54;100.00
42945;BME280;28584;42.636;23.294;2023-02-28T03:53:36;127944.72;;;4.52;100.00
42945;BME280;28584;42.636;23.294;2023-02-28T03:56:13;128007.38;;;4.46;100.00
42945;BME280;28584;42.636;23.294;2023-02-28T03:59:10;128124.63;;;4.39;100.00
42945;BME280;28584;42.636;23.294;2023-02-28T04:01:40;128297.50;;;4.51;100.00
42945;BME280;28584;42.636;23.294;2023-02-28T04:04:07;128461.19;;;4.54;100.00
42945;BME280;28584;42.636;23.294;2023-02-28T04:06:34;128567.59;;;4.65;100.00
42945;BME280;28584;42.636;23.294;2023-02-28T04:09:01;128588.28;;;4.76;100.00
42945;BME280;28584;42.636;23.294;2023-02-28T04:11:40;128581.06;;;4.88;100.00
42945;BME280;28584;42.636;23.294;2023-02-28T04:14:08;128554.66;;;4.91;100.00
42945;BME280;28584;42.636;23.294;2023-02-28T04:16:39;128536.72;;;4.89;100.00
42945;BME280;28584;42.636;23.294;2023-02-28T04:19:06;128414.69;;;4.83;100.00
42945;BME280;28584;42.636;23.294;2023-02-28T04:21:37;128323.78;;;4.87;100.00
42945;BME280;28584;42.636;23.294;2023-02-28T04:24:08;128142.41;;;4.86;100.00
42945;BME280;28584;42.636;23.294;2023-02-28T04:26:39;127973.03;;;4.86;100.00
42945;BME280;28584;42.636;23.294;2023-02-28T04:29:05;127797.00;;;4.88;100.00
42945;BME280;28584;42.636;23.294;2023-02-28T04:31:31;127654.56;;;4.93;100.00
42945;BME280;28584;42.636;23.294;2023-02-28T04:33:57;127508.31;;;4.91;100.00
42945;BME280;28584;42.636;23.294;2023-02-28T04:36:22;127164.22;;;4.56;100.00
42945;BME280;28584;42.636;23.294;2023-02-28T04:38:48;127282.72;;;4.70;100.00
42945;BME280;28584;42.636;23.294;2023-02-28T04:41:14;127230.03;;;4.73;100.00
42945;BME280;28584;42.636;23.294;2023-02-28T04:43:40;127067.25;;;4.74;100.00
42945;BME280;28584;42.636;23.294;2023-02-28T04:46:05;126973.38;;;4.73;100.00
42945;BME280;28584;42.636;23.294;2023-02-28T04:48:34;126879.50;;;4.66;100.00
42945;BME280;28584;42.636;23.294;2023-02-28T04:51:05;126822.56;;;4.61;100.00
42945;BME280;28584;42.636;23.294;2023-02-28T04:53:31;126656.53;;;4.43;100.00
42945;BME280;28584;42.636;23.294;2023-02-28T04:55:57;126798.63;;;4.34;100.00
42945;BME280;28584;42.636;23.294;2023-02-28T04:58:23;126968.44;;;4.33;100.00
42945;BME280;28584;42.636;23.294;2023-02-28T05:00:52;127047.34;;;4.29;100.00
42945;BME280;28584;42.636;23.294;2023-02-28T05:03:19;127172.41;;;4.28;100.00
42945;BME280;28584;42.636;23.294;2023-02-28T05:05:46;127209.75;;;4.25;100.00
42945;BME280;28584;42.636;23.294;2023-02-28T05:08:11;127353.72;;;4.26;100.00
42945;BME280;28584;42.636;23.294;2023-02-28T05:10:37;127591.94;;;4.22;100.00
42945;BME280;28584;42.636;23.294;2023-02-28T05:13:02;127812.28;;;4.32;100.00
42945;BME280;28584;42.636;23.294;2023-02-28T05:15:28;127949.59;;;4.44;100.00
42945;BME280;28584;42.636;23.294;2023-02-28T05:17:53;128029.03;;;4.48;100.00
42945;BME280;28584;42.636;23.294;2023-02-28T05:20:19;128188.31;;;4.51;100.00
42945;BME280;28584;42.636;23.294;2023-02-28T05:22:44;128252.19;;;4.52;100.00
42945;BME280;28584;42.636;23.294;2023-02-28T05:25:13;128300.88;;;4.59;100.00
42945;BME280;28584;42.636;23.294;2023-02-28T05:27:40;128281.75;;;4.68;100.00
42945;BME280;28584;42.636;23.294;2023-02-28T05:30:06;128234.69;;;4.78;100.00
42945;BME280;28584;42.636;23.294;2023-02-28T05:32:36;128185.38;;;4.81;100.00
42945;BME280;28584;42.636;23.294;2023-02-28T05:35:01;128271.44;;;4.67;100.00
42945;BME280;28584;42.636;23.294;2023-02-28T05:37:27;128314.97;;;4.70;100.00
42945;BME280;28584;42.636;23.294;2023-02-28T05:39:52;128231.69;;;4.74;100.00
42945;BME280;28584;42.636;23.294;2023-02-28T05:42:17;127995.00;;;4.68;100.00
42945;BME280;28584;42.636;23.294;2023-02-28T05:44:43;127866.91;;;4.72;100.00
42945;BME280;28584;42.636;23.294;2023-02-28T05:47:08;127713.28;;;4.67;100.00
42945;BME280;28584;42.636;23.294;2023-02-28T05:49:33;127564.94;;;4.64;100.00
42945;BME280;28584;42.636;23.294;2023-02-28T05:51:59;127347.47;;;4.73;100.00
42945;BME280;28584;42.636;23.294;2023-02-28T05:54:25;127230.88;;;4.76;100.00
42945;BME280;28584;42.636;23.294;2023-02-28T05:56:50;127288.38;;;5.02;100.00
42945;BME280;28584;42.636;23.294;2023-02-28T05:59:15;127189.81;;;4.98;100.00
42945;BME280;28584;42.636;23.294;2023-02-28T06:01:45;127046.50;;;5.00;100.00
42945;BME280;28584;42.636;23.294;2023-02-28T06:04:14;126831.78;;;4.94;100.00
42945;BME280;28584;42.636;23.294;2023-02-28T06:06:43;126601.91;;;4.99;100.00
42945;BME280;28584;42.636;23.294;2023-02-28T06:09:10;126330.19;;;5.08;100.00
42945;BME280;28584;42.636;23.294;2023-02-28T06:11:35;125949.94;;;5.19;100.00
42945;BME280;28584;42.636;23.294;2023-02-28T06:14:01;125523.25;;;5.24;100.00
42945;BME280;28584;42.636;23.294;2023-02-28T06:16:28;125178.44;;;5.40;100.00
42945;BME280;28584;42.636;23.294;2023-02-28T06:18:54;124659.88;;;5.49;100.00
42945;BME280;28584;42.636;23.294;2023-02-28T06:21:22;124071.88;;;5.50;100.00
42945;BME280;28584;42.636;23.294;2023-02-28T06:23:48;123544.28;;;5.69;100.00
42945;BME280;28584;42.636;23.294;2023-02-28T06:26:13;123002.44;;;5.64;100.00
42945;BME280;28584;42.636;23.294;2023-02-28T06:28:39;122505.25;;;5.68;100.00
42945;BME280;28584;42.636;23.294;2023-02-28T06:31:13;121793.50;;;5.59;100.00
42945;BME280;28584;42.636;23.294;2023-02-28T06:33:39;121298.81;;;5.81;100.00
42945;BME280;28584;42.636;23.294;2023-02-28T06:36:06;120569.38;;;5.95;100.00
42945;BME280;28584;42.636;23.294;2023-02-28T06:38:32;119820.19;;;6.00;100.00
42945;BME280;28584;42.636;23.294;2023-02-28T06:40:59;118919.56;;;6.08;100.00
42945;BME280;28584;42.636;23.294;2023-02-28T06:43:27;117963.56;;;6.18;100.00
42945;BME280;28584;42.636;23.294;2023-02-28T06:46:03;116920.81;;;6.33;100.00
42945;BME280;28584;42.636;23.294;2023-02-28T06:48:29;115694.44;;;6.43;100.00
42945;BME280;28584;42.636;23.294;2023-02-28T06:51:13;114763.22;;;6.45;100.00
42945;BME280;28584;42.636;23.294;2023-02-28T06:53:39;113545.81;;;6.49;100.00
42945;BME280;28584;42.636;23.294;2023-02-28T06:56:07;112263.34;;;6.56;100.00
42945;BME280;28584;42.636;23.294;2023-02-28T06:58:33;110232.25;;;6.59;100.00
42945;BME280;28584;42.636;23.294;2023-02-28T07:00:59;108659.03;;;6.59;100.00
42945;BME280;28584;42.636;23.294;2023-02-28T07:03:24;107285.38;;;6.57;100.00
42945;BME280;28584;42.636;23.294;2023-02-28T07:05:50;105149.81;;;6.50;100.00
42945;BME280;28584;42.636;23.294;2023-02-28T07:08:16;103950.69;;;6.52;100.00
42945;BME280;28584;42.636;23.294;2023-02-28T07:10:41;102276.63;;;6.56;100.00
42945;BME280;28584;42.636;23.294;2023-02-28T07:13:08;100762.78;;;6.53;100.00
42945;BME280;28584;42.636;23.294;2023-02-28T07:15:34;99421.22;;;6.58;100.00
42945;BME280;28584;42.636;23.294;2023-02-28T07:17:59;98889.53;;;6.49;100.00
42945;BME280;28584;42.636;23.294;2023-02-28T07:20:25;98368.88;;;6.49;100.00
42945;BME280;28584;42.636;23.294;2023-02-28T07:22:50;98030.88;;;6.42;100.00
42945;BME280;28584;42.636;23.294;2023-02-28T07:25:25;97483.41;;;6.46;100.00
42945;BME280;28584;42.636;23.294;2023-02-28T07:27:51;97070.75;;;6.46;100.00
42945;BME280;28584;42.636;23.294;2023-02-28T07:30:17;96450.50;;;6.52;100.00
42945;BME280;28584;42.636;23.294;2023-02-28T07:32:43;95645.81;;;6.65;100.00
42945;BME280;28584;42.636;23.294;2023-02-28T07:35:08;94924.78;;;6.83;100.00
42945;BME280;28584;42.636;23.294;2023-02-28T07:37:34;94785.56;;;6.86;100.00
42945;BME280;28584;42.636;23.294;2023-02-28T07:40:06;94531.59;;;6.99;100.00
42945;BME280;28584;42.636;23.294;2023-02-28T07:42:34;94919.09;;;7.02;100.00
42945;BME280;28584;42.636;23.294;2023-02-28T07:44:59;95198.41;;;7.00;100.00
42945;BME280;28584;42.636;23.294;2023-02-28T07:47:25;95252.19;;;6.91;100.00
42945;BME280;28584;42.636;23.294;2023-02-28T07:49:50;95042.75;;;6.92;100.00
42945;BME280;28584;42.636;23.294;2023-02-28T07:52:16;94761.88;;;6.83;100.00
42945;BME280;28584;42.636;23.294;2023-02-28T07:54:41;94153.16;;;6.72;100.00
42945;BME280;28584;42.636;23.294;2023-02-28T07:57:07;93162.41;;;6.73;100.00
42945;BME280;28584;42.636;23.294;2023-02-28T07:59:32;92189.44;;;6.83;100.00
42945;BME280;28584;42.636;23.294;2023-02-28T08:01:58;91418.81;;;6.90;100.00
42945;BME280;28584;42.636;23.294;2023-02-28T08:04:24;91132.88;;;6.96;100.00
42945;BME280;28584;42.636;23.294;2023-02-28T08:06:49;90976.69;;;7.04;100.00
42945;BME280;28584;42.636;23.294;2023-02-28T08:09:17;91367.31;;;6.81;100.00
42945;BME280;28584;42.636;23.294;2023-02-28T08:11:42;91220.16;;;7.09;100.00
42945;BME280;28584;42.636;23.294;2023-02-28T08:14:08;91162.91;;;7.22;100.00
42945;BME280;28584;42.636;23.294;2023-02-28T08:16:33;92135.34;;;7.19;100.00
42945;BME280;28584;42.636;23.294;2023-02-28T08:18:58;92033.00;;;6.80;100.00
42945;BME280;28584;42.636;23.294;2023-02-28T08:21:24;90426.88;;;6.74;100.00
42945;BME280;28584;42.636;23.294;2023-02-28T08:23:50;89525.38;;;7.19;100.00
42945;BME280;28584;42.636;23.294;2023-02-28T08:26:19;89287.72;;;7.34;100.00
42945;BME280;28584;42.636;23.294;2023-02-28T08:28:45;89287.69;;;7.53;100.00
42945;BME280;28584;42.636;23.294;2023-02-28T08:31:13;89971.06;;;7.49;100.00
42945;BME280;28584;42.636;23.294;2023-02-28T08:33:40;90610.84;;;7.54;100.00
42945;BME280;28584;42.636;23.294;2023-02-28T08:36:06;91143.94;;;7.56;100.00
42945;BME280;28584;42.636;23.294;2023-02-28T08:38:33;91636.78;;;7.52;100.00
42945;BME280;28584;42.636;23.294;2023-02-28T08:40:59;91848.56;;;7.52;100.00
42945;BME280;28584;42.636;23.294;2023-02-28T08:43:25;91743.69;;;7.63;100.00
42945;BME280;28584;42.636;23.294;2023-02-28T08:45:52;92263.31;;;7.60;100.00
42945;BME280;28584;42.636;23.294;2023-02-28T08:48:17;93484.47;;;6.99;100.00
42945;BME280;28584;42.636;23.294;2023-02-28T08:50:42;92088.00;;;6.80;100.00
42945;BME280;28584;42.636;23.294;2023-02-28T08:53:08;90257.66;;;6.97;100.00
42945;BME280;28584;42.636;23.294;2023-02-28T08:55:33;89286.00;;;7.00;100.00
42945;BME280;28584;42.636;23.294;2023-02-28T08:57:58;88287.81;;;7.14;100.00
42945;BME280;28584;42.636;23.294;2023-02-28T09:00:24;87959.94;;;7.24;100.00
42945;BME280;28584;42.636;23.294;2023-02-28T09:02:49;89056.47;;;6.89;100.00
42945;BME280;28584;42.636;23.294;2023-02-28T09:05:15;88843.13;;;6.77;100.00
42945;BME280;28584;42.636;23.294;2023-02-28T09:07:40;87486.16;;;6.98;100.00
42945;BME280;28584;42.636;23.294;2023-02-28T09:10:06;87222.63;;;7.24;100.00
42945;BME280;28584;42.636;23.294;2023-02-28T09:12:34;86409.19;;;7.85;100.00
42945;BME280;28584;42.636;23.294;2023-02-28T09:15:01;87395.66;;;8.07;100.00
42945;BME280;28584;42.636;23.294;2023-02-28T09:17:26;89538.19;;;8.40;100.00
42945;BME280;28584;42.636;23.294;2023-02-28T09:19:51;93121.47;;;8.89;100.00
42945;BME280;28584;42.636;23.294;2023-02-28T09:22:17;101682.97;;;9.31;100.00
42945;BME280;28584;42.636;23.294;2023-02-28T09:24:42;117107.59;;;9.56;100.00
42945;BME280;28584;42.636;23.294;2023-02-28T09:27:09;141393.09;;;9.85;100.00
42945;BME280;28584;42.636;23.294;2023-02-28T09:29:35;161225.09;;;10.03;100.00
42945;BME280;28584;42.636;23.294;2023-02-28T09:32:01;161306.66;;;10.34;100.00
42945;BME280;28584;42.636;23.294;2023-02-28T09:34:27;161319.97;;;10.39;100.00
42945;BME280;28584;42.636;23.294;2023-02-28T09:36:55;161274.56;;;10.22;100.00
42945;BME280;28584;42.636;23.294;2023-02-28T09:39:22;161294.63;;;10.29;100.00
42945;BME280;28584;42.636;23.294;2023-02-28T09:41:51;161318.69;;;10.38;100.00
42945;BME280;28584;42.636;23.294;2023-02-28T09:46:54;161225.09;;;10.03;100.00
42945;BME280;28584;42.636;23.294;2023-02-28T09:49:24;161108.94;;;9.60;100.00
42945;BME280;28584;42.636;23.294;2023-02-28T09:52:05;161277.28;;;10.23;100.00
42945;BME280;28584;42.636;23.294;2023-02-28T09:54:34;161270.56;;;10.20;100.00
42945;BME280;28584;42.636;23.294;2023-02-28T09:59:59;161254.56;;;10.14;100.00
42945;BME280;28584;42.636;23.294;2023-02-28T10:02:40;161434.91;;;10.82;100.00
42945;BME280;28584;42.636;23.294;2023-02-28T10:05:20;161398.81;;;10.68;100.00
42945;BME280;28584;42.636;23.294;2023-02-28T10:07:50;161481.66;;;10.99;100.00
42945;BME280;28584;42.636;23.294;2023-02-28T10:10:29;161609.97;;;11.48;100.00
42945;BME280;28584;42.636;23.294;2023-02-28T10:13:00;161507.03;;;11.09;100.00
42945;BME280;28584;42.636;23.294;2023-02-28T10:15:30;161433.56;;;10.81;100.00
42945;BME280;28584;42.636;23.294;2023-02-28T10:18:11;161567.19;;;11.32;100.00
42945;BME280;28584;42.636;23.294;2023-02-28T10:20:39;161589.91;;;11.40;100.00
42945;BME280;28584;42.636;23.294;2023-02-28T10:23:28;161444.22;;;10.85;100.00
42945;BME280;28584;42.636;23.294;2023-02-28T10:26:04;161283.94;;;10.25;100.00
42945;BME280;28584;42.636;23.294;2023-02-28T10:28:30;161422.88;;;10.77;100.00
42945;BME280;28584;42.636;23.294;2023-02-28T10:30:56;161433.56;;;10.81;100.00
42945;BME280;28584;42.636;23.294;2023-02-28T10:35:49;161491.03;;;11.03;100.00
42945;BME280;28584;42.636;23.294;2023-02-28T10:38:18;161527.09;;;11.16;100.00
42945;BME280;28584;42.636;23.294;2023-02-28T10:40:44;161456.28;;;10.90;100.00
42945;BME280;28584;42.636;23.294;2023-02-28T10:45:38;161446.91;;;10.86;100.00
42945;BME280;28584;42.636;23.294;2023-02-28T10:50:50;161561.84;;;11.30;100.00
42945;BME280;28584;42.636;23.294;2023-02-28T11:01:20;161468.31;;;10.94;100.00
42945;BME280;28584;42.636;23.294;2023-02-28T11:03:46;161453.63;;;10.89;100.00
42945;BME280;28584;42.636;23.294;2023-02-28T11:08:51;161452.25;;;10.88;100.00
42945;BME280;28584;42.636;23.294;2023-02-28T11:11:18;161517.75;;;11.13;100.00
42945;BME280;28584;42.636;23.294;2023-02-28T11:13:45;161555.19;;;11.27;100.00
42945;BME280;28584;42.636;23.294;2023-02-28T11:16:13;161580.56;;;11.37;100.00
42945;BME280;28584;42.636;23.294;2023-02-28T11:18:55;161552.47;;;11.26;100.00
42945;BME280;28584;42.636;23.294;2023-02-28T11:21:31;161508.38;;;11.09;100.00
42945;BME280;28584;42.636;23.294;2023-02-28T11:24:27;161457.63;;;10.90;100.00
42945;BME280;28584;42.636;23.294;2023-02-28T11:26:54;161523.09;;;11.15;100.00
42945;BME280;28584;42.636;23.294;2023-02-28T11:29:27;161533.78;;;11.19;100.00
42945;BME280;28584;42.636;23.294;2023-02-28T11:34:31;161555.19;;;11.27;100.00
42945;BME280;28584;42.636;23.294;2023-02-28T11:36:58;161512.41;;;11.11;100.00
42945;BME280;28584;42.636;23.294;2023-02-28T11:39:25;161477.63;;;10.98;100.00
42945;BME280;28584;42.636;23.294;2023-02-28T11:41:57;161429.53;;;10.80;100.00
42945;BME280;28584;42.636;23.294;2023-02-28T11:44:37;161476.34;;;10.97;100.00
42945;BME280;28584;42.636;23.294;2023-02-28T12:01:11;161532.47;;;11.18;100.00
42945;BME280;28584;42.636;23.294;2023-02-28T12:06:13;161458.94;;;10.91;100.00
42945;BME280;28584;42.636;23.294;2023-02-28T12:15:32;161440.22;;;10.84;100.00
42945;BME280;28584;42.636;23.294;2023-02-28T12:22:52;161406.81;;;10.71;100.00
42945;BME280;28584;42.636;23.294;2023-02-28T12:27:54;161404.16;;;10.70;100.00
42945;BME280;28584;42.636;23.294;2023-02-28T12:30:24;161425.53;;;10.78;100.00
42945;BME280;28584;42.636;23.294;2023-02-28T12:33:14;161474.97;;;10.97;100.00
42945;BME280;28584;42.636;23.294;2023-02-28T12:35:54;161428.19;;;10.79;100.00
42945;BME280;28584;42.636;23.294;2023-02-28T12:38:29;161342.69;;;10.47;100.00
42945;BME280;28584;42.636;23.294;2023-02-28T12:43:42;161330.66;;;10.43;100.00
42945;BME280;28584;42.636;23.294;2023-02-28T12:46:19;161377.44;;;10.60;100.00
42945;BME280;28584;42.636;23.294;2023-02-28T12:48:50;161390.78;;;10.65;100.00
42945;BME280;28584;42.636;23.294;2023-02-28T12:51:18;161458.94;;;10.91;100.00
42945;BME280;28584;42.636;23.294;2023-02-28T12:57:13;161361.41;;;10.54;100.00
42945;BME280;28584;42.636;23.294;2023-02-28T12:59:54;161416.19;;;10.75;100.00
42945;BME280;28584;42.636;23.294;2023-02-28T13:10:21;161397.50;;;10.68;100.00
42945;BME280;28584;42.636;23.294;2023-02-28T13:12:51;161368.06;;;10.57;100.00
42945;BME280;28584;42.636;23.294;2023-02-28T13:15:27;161271.91;;;10.21;100.00
42945;BME280;28584;42.636;23.294;2023-02-28T13:17:56;161231.88;;;10.06;100.00
42945;BME280;28584;42.636;23.294;2023-02-28T13:20:24;161255.88;;;10.15;100.00
42945;BME280;28584;42.636;23.294;2023-02-28T13:22:54;161246.56;;;10.11;100.00
42945;BME280;28584;42.636;23.294;2023-02-28T13:27:49;161211.75;;;9.98;100.00
42945;BME280;28584;42.636;23.294;2023-02-28T13:38:48;161202.44;;;9.95;100.00
42945;BME280;28584;42.636;23.294;2023-02-28T13:41:40;161217.13;;;10.00;100.00
42945;BME280;28584;42.636;23.294;2023-02-28T13:46:32;161198.44;;;9.93;100.00
42945;BME280;28584;42.636;23.294;2023-02-28T13:49:19;161169.03;;;9.82;100.00
42945;BME280;28584;42.636;23.294;2023-02-28T13:51:47;161150.31;;;9.75;100.00
42945;BME280;28584;42.636;23.294;2023-02-28T13:57:01;161197.09;;;9.93;100.00
42945;BME280;28584;42.636;23.294;2023-02-28T13:59:49;161182.41;;;9.87;100.00
42945;BME280;28584;42.636;23.294;2023-02-28T14:07:31;161201.09;;;9.94;100.00
42945;BME280;28584;42.636;23.294;2023-02-28T14:10:04;161206.41;;;9.96;100.00
42945;BME280;28584;42.636;23.294;2023-02-28T14:15:39;161203.75;;;9.95;100.00
42945;BME280;28584;42.636;23.294;2023-02-28T14:18:35;161147.66;;;9.74;100.00
42945;BME280;28584;42.636;23.294;2023-02-28T14:31:45;161114.31;;;9.62;100.00
42945;BME280;28584;42.636;23.294;2023-02-28T14:34:45;161115.66;;;9.62;100.00
42945;BME280;28584;42.636;23.294;2023-02-28T14:37:16;161078.28;;;9.48;100.00
42945;BME280;28584;42.636;23.294;2023-02-28T14:39:44;161062.25;;;9.42;100.00
42945;BME280;28584;42.636;23.294;2023-02-28T14:42:29;161046.22;;;9.36;100.00
42945;BME280;28584;42.636;23.294;2023-02-28T14:44:55;161036.91;;;9.33;100.00
42945;BME280;28584;42.636;23.294;2023-02-28T14:47:28;161022.22;;;9.27;100.00
42945;BME280;28584;42.636;23.294;2023-02-28T14:49:56;161030.19;;;9.30;100.00
42945;BME280;28584;42.636;23.294;2023-02-28T14:52:24;161039.56;;;9.34;100.00
42945;BME280;28584;42.636;23.294;2023-02-28T14:54:54;161064.91;;;9.43;100.00
42945;BME280;28584;42.636;23.294;2023-02-28T14:57:32;161084.94;;;9.51;100.00
42945;BME280;28584;42.636;23.294;2023-02-28T15:00:27;161076.94;;;9.48;100.00
42945;BME280;28584;42.636;23.294;2023-02-28T15:02:55;161047.56;;;9.37;100.00
42945;BME280;28584;42.636;23.294;2023-02-28T15:05:32;161043.56;;;9.35;100.00
42945;BME280;28584;42.636;23.294;2023-02-28T15:10:28;161039.56;;;9.34;100.00
42945;BME280;28584;42.636;23.294;2023-02-28T15:13:04;161054.22;;;9.39;100.00
42945;BME280;28584;42.636;23.294;2023-02-28T15:15:41;161059.59;;;9.41;100.00
42945;BME280;28584;42.636;23.294;2023-02-28T15:18:15;161051.56;;;9.38;100.00